チューリッヒ の空港の天気 - METARとTAF

チューリヒ国際空港 ( LSZH / ZRH ) - スイス チューリッヒ
飛行場実況気象(Metar)
観測時間11/22 13:50 CET (11/22 12:50 UTC)
風向・風速南南西 3m/s
視程10km以上
天気現象
なし
気温13℃
湿度47%
気圧1014hPa
METARLSZH 221250Z 20005KT 150V240 CAVOK 13/02 Q1014 NOSIG
過去の天気等 Google飛行場航空写真 Wunderground天気予報

過去48時間のMETAR

飛行場予報(TAF)
発表時間: 11/22 12:25 CET (11/22 11:25 UTC)
予報対象時間: 22日13時 CET ~ 23日19時 CET
風向・風速南 3m/s
視程10km以上
なし
23日3時 CET から 確率 40% で
視程4,000m
天気現象地霧
23日5時 CET から 確率 30% で
視程1,500m
天気現象散在した霧
全天の4割程度の雲 雲底高度 60m
TAF LSZH 221125Z 2212/2318 17005KT CAVOK TX12/2214Z TN00/2306Z TX13/2314Z
PROB40 2302/2306 4000 MIFG
PROB30 2304/2308 1500 BCFG SCT002